sensor_id;sensor_type;location;lat;lon;timestamp;temperature;humidity
44431;DHT22;30135;47.866;-4.222;2023-10-19T00:01:11;18.10;99.90
44431;DHT22;30135;47.866;-4.222;2023-10-19T00:03:37;18.10;99.90
44431;DHT22;30135;47.866;-4.222;2023-10-19T00:06:03;18.10;99.90
44431;DHT22;30135;47.866;-4.222;2023-10-19T00:08:31;18.10;99.90
44431;DHT22;30135;47.866;-4.222;2023-10-19T00:11:12;18.10;99.90
44431;DHT22;30135;47.866;-4.222;2023-10-19T00:13:48;18.10;99.90
44431;DHT22;30135;47.866;-4.222;2023-10-19T00:16:19;18.10;99.90
44431;DHT22;30135;47.866;-4.222;2023-10-19T00:18:51;18.10;99.90
44431;DHT22;30135;47.866;-4.222;2023-10-19T00:21:19;18.10;99.90
44431;DHT22;30135;47.866;-4.222;2023-10-19T00:23:58;18.10;99.90
44431;DHT22;30135;47.866;-4.222;2023-10-19T00:26:31;18.10;99.90
44431;DHT22;30135;47.866;-4.222;2023-10-19T00:28:57;18.20;99.90
44431;DHT22;30135;47.866;-4.222;2023-10-19T00:31:27;18.10;99.90
44431;DHT22;30135;47.866;-4.222;2023-10-19T00:33:54;18.10;99.90
44431;DHT22;30135;47.866;-4.222;2023-10-19T00:36:21;18.10;99.90
44431;DHT22;30135;47.866;-4.222;2023-10-19T00:38:48;18.10;99.90
44431;DHT22;30135;47.866;-4.222;2023-10-19T00:41:15;18.20;99.90
44431;DHT22;30135;47.866;-4.222;2023-10-19T00:43:53;18.20;99.90
44431;DHT22;30135;47.866;-4.222;2023-10-19T00:46:49;18.20;99.90
44431;DHT22;30135;47.866;-4.222;2023-10-19T00:49:29;18.20;99.90
44431;DHT22;30135;47.866;-4.222;2023-10-19T00:51:58;18.20;99.90
44431;DHT22;30135;47.866;-4.222;2023-10-19T00:54:35;18.20;99.90
44431;DHT22;30135;47.866;-4.222;2023-10-19T00:57:03;18.20;99.90
44431;DHT22;30135;47.866;-4.222;2023-10-19T00:59:53;18.20;99.90
44431;DHT22;30135;47.866;-4.222;2023-10-19T01:02:20;18.20;99.90
44431;DHT22;30135;47.866;-4.222;2023-10-19T01:04:49;18.20;99.90
44431;DHT22;30135;47.866;-4.222;2023-10-19T01:07:39;18.20;99.90
44431;DHT22;30135;47.866;-4.222;2023-10-19T01:10:07;18.20;99.90
44431;DHT22;30135;47.866;-4.222;2023-10-19T01:12:46;18.20;99.90
44431;DHT22;30135;47.866;-4.222;2023-10-19T01:15:15;18.20;99.90
44431;DHT22;30135;47.866;-4.222;2023-10-19T01:17:45;18.20;99.90
44431;DHT22;30135;47.866;-4.222;2023-10-19T01:20:20;18.20;99.90
44431;DHT22;30135;47.866;-4.222;2023-10-19T01:23:10;18.20;99.90
44431;DHT22;30135;47.866;-4.222;2023-10-19T01:31:04;18.20;99.90
44431;DHT22;30135;47.866;-4.222;2023-10-19T01:33:33;18.20;99.90
44431;DHT22;30135;47.866;-4.222;2023-10-19T01:36:02;18.10;99.90
44431;DHT22;30135;47.866;-4.222;2023-10-19T01:38:37;18.20;99.90
44431;DHT22;30135;47.866;-4.222;2023-10-19T01:41:08;18.20;99.90
44431;DHT22;30135;47.866;-4.222;2023-10-19T01:43:41;18.20;99.90
44431;DHT22;30135;47.866;-4.222;2023-10-19T01:46:11;18.20;99.90
44431;DHT22;30135;47.866;-4.222;2023-10-19T01:48:42;18.20;99.90
44431;DHT22;30135;47.866;-4.222;2023-10-19T01:51:10;18.10;99.90
44431;DHT22;30135;47.866;-4.222;2023-10-19T01:53:38;18.20;99.90
44431;DHT22;30135;47.866;-4.222;2023-10-19T01:56:10;18.20;99.90
44431;DHT22;30135;47.866;-4.222;2023-10-19T01:58:41;18.20;99.90
44431;DHT22;30135;47.866;-4.222;2023-10-19T02:01:09;18.20;99.90
44431;DHT22;30135;47.866;-4.222;2023-10-19T02:03:39;18.20;99.90
44431;DHT22;30135;47.866;-4.222;2023-10-19T02:06:12;18.20;99.90
44431;DHT22;30135;47.866;-4.222;2023-10-19T02:08:51;18.20;99.90
44431;DHT22;30135;47.866;-4.222;2023-10-19T02:11:23;18.20;99.90
44431;DHT22;30135;47.866;-4.222;2023-10-19T02:13:51;18.20;99.90
44431;DHT22;30135;47.866;-4.222;2023-10-19T02:16:20;18.20;99.90
44431;DHT22;30135;47.866;-4.222;2023-10-19T02:18:51;18.20;99.90
44431;DHT22;30135;47.866;-4.222;2023-10-19T02:21:17;18.20;99.90
44431;DHT22;30135;47.866;-4.222;2023-10-19T02:23:59;18.20;99.90
44431;DHT22;30135;47.866;-4.222;2023-10-19T02:26:25;18.20;99.90
44431;DHT22;30135;47.866;-4.222;2023-10-19T02:28:53;18.20;99.90
44431;DHT22;30135;47.866;-4.222;2023-10-19T02:31:19;18.20;99.90
44431;DHT22;30135;47.866;-4.222;2023-10-19T02:33:51;18.20;99.90
44431;DHT22;30135;47.866;-4.222;2023-10-19T02:36:18;18.20;99.90
44431;DHT22;30135;47.866;-4.222;2023-10-19T02:38:46;18.20;99.90
44431;DHT22;30135;47.866;-4.222;2023-10-19T02:41:18;18.20;99.90
44431;DHT22;30135;47.866;-4.222;2023-10-19T02:43:49;18.20;99.90
44431;DHT22;30135;47.866;-4.222;2023-10-19T02:46:28;18.20;99.90
44431;DHT22;30135;47.866;-4.222;2023-10-19T02:48:54;18.20;99.90
44431;DHT22;30135;47.866;-4.222;2023-10-19T02:51:21;18.20;99.90
44431;DHT22;30135;47.866;-4.222;2023-10-19T02:53:47;18.20;99.90
44431;DHT22;30135;47.866;-4.222;2023-10-19T02:56:15;18.20;99.90
44431;DHT22;30135;47.866;-4.222;2023-10-19T02:58:49;18.20;99.90
44431;DHT22;30135;47.866;-4.222;2023-10-19T03:01:20;18.20;99.90
44431;DHT22;30135;47.866;-4.222;2023-10-19T03:03:51;18.20;99.90
44431;DHT22;30135;47.866;-4.222;2023-10-19T03:06:22;18.20;99.90
44431;DHT22;30135;47.866;-4.222;2023-10-19T03:08:49;18.20;99.90
44431;DHT22;30135;47.866;-4.222;2023-10-19T03:11:23;18.20;99.90
44431;DHT22;30135;47.866;-4.222;2023-10-19T03:13:54;18.10;99.90
44431;DHT22;30135;47.866;-4.222;2023-10-19T03:16:21;18.20;99.90
44431;DHT22;30135;47.866;-4.222;2023-10-19T03:18:47;18.20;99.90
44431;DHT22;30135;47.866;-4.222;2023-10-19T03:21:14;18.20;99.90
44431;DHT22;30135;47.866;-4.222;2023-10-19T03:23:42;18.20;99.90
44431;DHT22;30135;47.866;-4.222;2023-10-19T03:26:08;18.20;99.90
44431;DHT22;30135;47.866;-4.222;2023-10-19T03:28:48;18.20;99.90
44431;DHT22;30135;47.866;-4.222;2023-10-19T03:31:21;18.20;99.90
44431;DHT22;30135;47.866;-4.222;2023-10-19T03:33:51;18.20;99.90
44431;DHT22;30135;47.866;-4.222;2023-10-19T03:36:24;18.10;99.90
44431;DHT22;30135;47.866;-4.222;2023-10-19T03:38:52;18.20;99.90
44431;DHT22;30135;47.866;-4.222;2023-10-19T03:41:21;18.20;99.90
44431;DHT22;30135;47.866;-4.222;2023-10-19T03:43:53;18.20;99.90
44431;DHT22;30135;47.866;-4.222;2023-10-19T03:46:20;18.20;99.90
44431;DHT22;30135;47.866;-4.222;2023-10-19T03:49:00;18.20;99.90
44431;DHT22;30135;47.866;-4.222;2023-10-19T03:51:39;18.20;99.90
44431;DHT22;30135;47.866;-4.222;2023-10-19T03:54:06;18.10;99.90
44431;DHT22;30135;47.866;-4.222;2023-10-19T03:56:49;18.20;99.90
44431;DHT22;30135;47.866;-4.222;2023-10-19T03:59:16;18.10;99.90
44431;DHT22;30135;47.866;-4.222;2023-10-19T04:01:43;18.10;99.90
44431;DHT22;30135;47.866;-4.222;2023-10-19T04:04:10;18.20;99.90
44431;DHT22;30135;47.866;-4.222;2023-10-19T04:06:36;18.20;99.90
44431;DHT22;30135;47.866;-4.222;2023-10-19T04:09:03;18.10;99.90
44431;DHT22;30135;47.866;-4.222;2023-10-19T04:11:34;18.10;99.90
44431;DHT22;30135;47.866;-4.222;2023-10-19T04:14:14;18.20;99.90
44431;DHT22;30135;47.866;-4.222;2023-10-19T04:16:45;18.20;99.90
44431;DHT22;30135;47.866;-4.222;2023-10-19T04:19:14;18.10;99.90
44431;DHT22;30135;47.866;-4.222;2023-10-19T04:21:41;18.10;99.90
44431;DHT22;30135;47.866;-4.222;2023-10-19T04:24:12;18.10;99.90
44431;DHT22;30135;47.866;-4.222;2023-10-19T04:26:39;18.10;99.90
44431;DHT22;30135;47.866;-4.222;2023-10-19T04:29:07;18.10;99.90
44431;DHT22;30135;47.866;-4.222;2023-10-19T04:31:39;18.10;99.90
44431;DHT22;30135;47.866;-4.222;2023-10-19T04:34:18;18.10;99.90
44431;DHT22;30135;47.866;-4.222;2023-10-19T04:36:50;18.10;99.90
44431;DHT22;30135;47.866;-4.222;2023-10-19T04:39:16;18.10;99.90
44431;DHT22;30135;47.866;-4.222;2023-10-19T04:41:45;18.10;99.90
44431;DHT22;30135;47.866;-4.222;2023-10-19T04:44:14;18.10;99.90
44431;DHT22;30135;47.866;-4.222;2023-10-19T04:46:41;18.10;99.90
44431;DHT22;30135;47.866;-4.222;2023-10-19T04:49:07;18.10;99.90
44431;DHT22;30135;47.866;-4.222;2023-10-19T04:51:34;18.10;99.90
44431;DHT22;30135;47.866;-4.222;2023-10-19T04:54:05;18.20;99.90
44431;DHT22;30135;47.866;-4.222;2023-10-19T04:56:34;18.20;99.90
44431;DHT22;30135;47.866;-4.222;2023-10-19T04:59:02;18.10;99.90
44431;DHT22;30135;47.866;-4.222;2023-10-19T05:01:28;18.10;99.90
44431;DHT22;30135;47.866;-4.222;2023-10-19T05:03:54;18.10;99.90
44431;DHT22;30135;47.866;-4.222;2023-10-19T05:06:20;18.10;99.90
44431;DHT22;30135;47.866;-4.222;2023-10-19T05:08:47;18.20;99.90
44431;DHT22;30135;47.866;-4.222;2023-10-19T05:11:13;18.20;99.90
44431;DHT22;30135;47.866;-4.222;2023-10-19T05:13:39;18.10;99.90
44431;DHT22;30135;47.866;-4.222;2023-10-19T05:16:05;18.20;99.90
44431;DHT22;30135;47.866;-4.222;2023-10-19T05:18:32;18.10;99.90
44431;DHT22;30135;47.866;-4.222;2023-10-19T05:20:59;18.20;99.90
44431;DHT22;30135;47.866;-4.222;2023-10-19T05:23:27;18.20;99.90
44431;DHT22;30135;47.866;-4.222;2023-10-19T05:26:00;18.20;99.90
44431;DHT22;30135;47.866;-4.222;2023-10-19T05:28:28;18.20;99.90
44431;DHT22;30135;47.866;-4.222;2023-10-19T05:30:54;18.20;99.90
44431;DHT22;30135;47.866;-4.222;2023-10-19T05:33:20;18.10;99.90
44431;DHT22;30135;47.866;-4.222;2023-10-19T05:35:50;18.20;99.90
44431;DHT22;30135;47.866;-4.222;2023-10-19T05:38:17;18.20;99.90
44431;DHT22;30135;47.866;-4.222;2023-10-19T05:40:45;18.20;99.90
44431;DHT22;30135;47.866;-4.222;2023-10-19T05:43:11;18.20;99.90
44431;DHT22;30135;47.866;-4.222;2023-10-19T05:45:38;18.20;99.90
44431;DHT22;30135;47.866;-4.222;2023-10-19T05:48:04;18.20;99.90
44431;DHT22;30135;47.866;-4.222;2023-10-19T05:50:34;18.20;99.90
44431;DHT22;30135;47.866;-4.222;2023-10-19T05:53:02;18.20;99.90
44431;DHT22;30135;47.866;-4.222;2023-10-19T05:55:29;18.20;99.90
44431;DHT22;30135;47.866;-4.222;2023-10-19T05:57:55;18.10;99.90
44431;DHT22;30135;47.866;-4.222;2023-10-19T06:00:21;18.10;99.90
44431;DHT22;30135;47.866;-4.222;2023-10-19T06:02:51;18.10;99.90
44431;DHT22;30135;47.866;-4.222;2023-10-19T06:05:18;18.10;99.90
44431;DHT22;30135;47.866;-4.222;2023-10-19T06:07:45;18.10;99.90
44431;DHT22;30135;47.866;-4.222;2023-10-19T06:10:15;18.10;99.90
44431;DHT22;30135;47.866;-4.222;2023-10-19T06:12:43;18.10;99.90
44431;DHT22;30135;47.866;-4.222;2023-10-19T06:15:11;18.10;99.90
44431;DHT22;30135;47.866;-4.222;2023-10-19T06:17:41;18.00;99.90
44431;DHT22;30135;47.866;-4.222;2023-10-19T06:20:09;18.00;99.90
44431;DHT22;30135;47.866;-4.222;2023-10-19T06:22:49;17.90;99.90
44431;DHT22;30135;47.866;-4.222;2023-10-19T06:25:20;17.90;99.90
44431;DHT22;30135;47.866;-4.222;2023-10-19T06:27:47;17.90;99.90
44431;DHT22;30135;47.866;-4.222;2023-10-19T06:30:18;17.90;99.90
44431;DHT22;30135;47.866;-4.222;2023-10-19T06:32:47;17.80;99.90
44431;DHT22;30135;47.866;-4.222;2023-10-19T06:35:16;17.80;99.90
44431;DHT22;30135;47.866;-4.222;2023-10-19T06:37:43;17.80;99.90
44431;DHT22;30135;47.866;-4.222;2023-10-19T06:40:10;17.80;99.90
44431;DHT22;30135;47.866;-4.222;2023-10-19T06:42:38;17.80;99.90
44431;DHT22;30135;47.866;-4.222;2023-10-19T06:45:05;17.80;99.90
44431;DHT22;30135;47.866;-4.222;2023-10-19T06:47:33;17.70;99.90
44431;DHT22;30135;47.866;-4.222;2023-10-19T06:50:04;17.70;99.90
44431;DHT22;30135;47.866;-4.222;2023-10-19T06:52:34;17.70;99.90
44431;DHT22;30135;47.866;-4.222;2023-10-19T06:55:05;17.70;99.90
44431;DHT22;30135;47.866;-4.222;2023-10-19T06:57:50;17.70;99.90
44431;DHT22;30135;47.866;-4.222;2023-10-19T07:00:23;17.70;99.90
44431;DHT22;30135;47.866;-4.222;2023-10-19T07:02:54;17.70;99.90
44431;DHT22;30135;47.866;-4.222;2023-10-19T07:05:22;17.70;99.90
44431;DHT22;30135;47.866;-4.222;2023-10-19T07:07:51;17.70;99.90
44431;DHT22;30135;47.866;-4.222;2023-10-19T07:10:18;17.70;99.90
44431;DHT22;30135;47.866;-4.222;2023-10-19T07:12:46;17.70;99.90
44431;DHT22;30135;47.866;-4.222;2023-10-19T07:15:14;17.70;99.90
44431;DHT22;30135;47.866;-4.222;2023-10-19T07:17:41;17.70;99.90
44431;DHT22;30135;47.866;-4.222;2023-10-19T07:20:08;17.70;99.90
44431;DHT22;30135;47.866;-4.222;2023-10-19T07:22:47;17.70;99.90
44431;DHT22;30135;47.866;-4.222;2023-10-19T07:25:14;17.70;99.90
44431;DHT22;30135;47.866;-4.222;2023-10-19T07:27:40;17.70;99.90
44431;DHT22;30135;47.866;-4.222;2023-10-19T07:30:08;17.70;99.90
44431;DHT22;30135;47.866;-4.222;2023-10-19T07:32:35;17.70;99.90
44431;DHT22;30135;47.866;-4.222;2023-10-19T07:35:02;17.70;99.90
44431;DHT22;30135;47.866;-4.222;2023-10-19T07:37:28;17.70;99.90
44431;DHT22;30135;47.866;-4.222;2023-10-19T07:39:54;17.70;99.90
44431;DHT22;30135;47.866;-4.222;2023-10-19T07:42:23;17.70;99.90
44431;DHT22;30135;47.866;-4.222;2023-10-19T07:44:49;17.70;99.90
44431;DHT22;30135;47.866;-4.222;2023-10-19T07:47:16;17.70;99.90
44431;DHT22;30135;47.866;-4.222;2023-10-19T07:49:42;17.70;99.90
44431;DHT22;30135;47.866;-4.222;2023-10-19T07:52:08;17.70;99.90
44431;DHT22;30135;47.866;-4.222;2023-10-19T07:54:39;17.80;99.90
44431;DHT22;30135;47.866;-4.222;2023-10-19T07:57:06;17.80;99.90
44431;DHT22;30135;47.866;-4.222;2023-10-19T07:59:32;17.80;99.90
44431;DHT22;30135;47.866;-4.222;2023-10-19T08:01:59;17.80;99.90
44431;DHT22;30135;47.866;-4.222;2023-10-19T08:04:30;17.80;99.90
44431;DHT22;30135;47.866;-4.222;2023-10-19T08:06:57;17.80;99.90
44431;DHT22;30135;47.866;-4.222;2023-10-19T08:09:24;17.80;99.90
44431;DHT22;30135;47.866;-4.222;2023-10-19T08:11:57;17.80;99.90
44431;DHT22;30135;47.866;-4.222;2023-10-19T08:14:25;17.80;99.90
44431;DHT22;30135;47.866;-4.222;2023-10-19T08:16:52;17.80;99.90
44431;DHT22;30135;47.866;-4.222;2023-10-19T08:19:19;17.80;99.90
44431;DHT22;30135;47.866;-4.222;2023-10-19T08:21:45;17.80;99.90
44431;DHT22;30135;47.866;-4.222;2023-10-19T08:24:12;17.80;99.90
44431;DHT22;30135;47.866;-4.222;2023-10-19T08:26:44;17.80;99.90
44431;DHT22;30135;47.866;-4.222;2023-10-19T08:29:13;17.80;99.90
44431;DHT22;30135;47.866;-4.222;2023-10-19T08:31:42;17.80;99.90
44431;DHT22;30135;47.866;-4.222;2023-10-19T08:34:11;17.80;99.90
44431;DHT22;30135;47.866;-4.222;2023-10-19T08:36:40;17.80;99.90
44431;DHT22;30135;47.866;-4.222;2023-10-19T08:39:08;17.80;99.90
44431;DHT22;30135;47.866;-4.222;2023-10-19T08:41:38;17.70;99.90
44431;DHT22;30135;47.866;-4.222;2023-10-19T08:44:06;17.70;99.90
44431;DHT22;30135;47.866;-4.222;2023-10-19T08:46:42;17.70;99.90
44431;DHT22;30135;47.866;-4.222;2023-10-19T08:49:14;17.70;99.90
44431;DHT22;30135;47.866;-4.222;2023-10-19T08:51:43;17.70;99.90
44431;DHT22;30135;47.866;-4.222;2023-10-19T08:54:11;17.70;99.90
44431;DHT22;30135;47.866;-4.222;2023-10-19T08:56:38;17.60;99.90
44431;DHT22;30135;47.866;-4.222;2023-10-19T08:59:07;17.70;99.90
44431;DHT22;30135;47.866;-4.222;2023-10-19T09:01:36;17.60;99.90
44431;DHT22;30135;47.866;-4.222;2023-10-19T09:04:03;17.60;99.90
44431;DHT22;30135;47.866;-4.222;2023-10-19T09:06:36;17.60;99.90
44431;DHT22;30135;47.866;-4.222;2023-10-19T09:09:13;17.60;99.90
44431;DHT22;30135;47.866;-4.222;2023-10-19T09:11:47;17.70;99.90
44431;DHT22;30135;47.866;-4.222;2023-10-19T09:14:15;17.70;99.90
44431;DHT22;30135;47.866;-4.222;2023-10-19T09:16:55;17.70;99.90
44431;DHT22;30135;47.866;-4.222;2023-10-19T09:19:44;17.70;99.90
44431;DHT22;30135;47.866;-4.222;2023-10-19T09:22:13;17.70;99.90
44431;DHT22;30135;47.866;-4.222;2023-10-19T09:24:48;17.70;99.90
44431;DHT22;30135;47.866;-4.222;2023-10-19T09:27:19;17.70;99.90
44431;DHT22;30135;47.866;-4.222;2023-10-19T09:29:47;17.70;99.90
44431;DHT22;30135;47.866;-4.222;2023-10-19T09:32:14;17.70;99.90
44431;DHT22;30135;47.866;-4.222;2023-10-19T09:34:40;17.70;99.90
44431;DHT22;30135;47.866;-4.222;2023-10-19T09:37:09;17.80;99.90
44431;DHT22;30135;47.866;-4.222;2023-10-19T09:39:37;17.80;99.90
44431;DHT22;30135;47.866;-4.222;2023-10-19T09:42:07;17.80;99.90
44431;DHT22;30135;47.866;-4.222;2023-10-19T09:44:44;17.80;99.90
44431;DHT22;30135;47.866;-4.222;2023-10-19T09:47:38;17.80;99.90
44431;DHT22;30135;47.866;-4.222;2023-10-19T09:50:05;17.80;99.90
44431;DHT22;30135;47.866;-4.222;2023-10-19T09:52:33;17.80;99.90
44431;DHT22;30135;47.866;-4.222;2023-10-19T09:58:02;17.80;99.90
44431;DHT22;30135;47.866;-4.222;2023-10-19T10:00:33;17.80;99.90
44431;DHT22;30135;47.866;-4.222;2023-10-19T10:03:00;17.80;99.90
44431;DHT22;30135;47.866;-4.222;2023-10-19T10:10:48;17.80;99.90
44431;DHT22;30135;47.866;-4.222;2023-10-19T10:15:53;17.80;99.90
44431;DHT22;30135;47.866;-4.222;2023-10-19T10:18:31;17.80;99.90
44431;DHT22;30135;47.866;-4.222;2023-10-19T10:26:31;17.80;99.90
44431;DHT22;30135;47.866;-4.222;2023-10-19T10:29:24;17.80;99.90
44431;DHT22;30135;47.866;-4.222;2023-10-19T10:31:50;17.80;99.90
44431;DHT22;30135;47.866;-4.222;2023-10-19T10:37:07;17.90;99.90
44431;DHT22;30135;47.866;-4.222;2023-10-19T10:39:35;17.90;99.90
44431;DHT22;30135;47.866;-4.222;2023-10-19T10:42:04;17.90;99.90
44431;DHT22;30135;47.866;-4.222;2023-10-19T10:44:42;17.90;99.90
44431;DHT22;30135;47.866;-4.222;2023-10-19T10:47:16;18.00;99.90
44431;DHT22;30135;47.866;-4.222;2023-10-19T10:49:51;18.00;99.90
44431;DHT22;30135;47.866;-4.222;2023-10-19T10:52:38;18.00;99.90
44431;DHT22;30135;47.866;-4.222;2023-10-19T10:55:13;18.00;99.90
44431;DHT22;30135;47.866;-4.222;2023-10-19T10:57:42;18.00;99.90
44431;DHT22;30135;47.866;-4.222;2023-10-19T11:00:13;18.00;99.90
44431;DHT22;30135;47.866;-4.222;2023-10-19T11:02:47;18.00;99.90
44431;DHT22;30135;47.866;-4.222;2023-10-19T11:05:25;18.00;99.90
44431;DHT22;30135;47.866;-4.222;2023-10-19T11:08:13;18.10;99.90
44431;DHT22;30135;47.866;-4.222;2023-10-19T11:10:44;18.10;99.90
44431;DHT22;30135;47.866;-4.222;2023-10-19T11:13:16;18.10;99.90
44431;DHT22;30135;47.866;-4.222;2023-10-19T11:15:50;18.10;99.90
44431;DHT22;30135;47.866;-4.222;2023-10-19T11:18:31;18.00;99.90
44431;DHT22;30135;47.866;-4.222;2023-10-19T11:21:02;18.00;99.90
44431;DHT22;30135;47.866;-4.222;2023-10-19T11:23:43;18.00;99.90
44431;DHT22;30135;47.866;-4.222;2023-10-19T11:26:16;18.00;99.90
44431;DHT22;30135;47.866;-4.222;2023-10-19T11:28:47;18.00;99.90
44431;DHT22;30135;47.866;-4.222;2023-10-19T11:31:23;18.00;99.90
44431;DHT22;30135;47.866;-4.222;2023-10-19T11:33:51;18.00;99.90
44431;DHT22;30135;47.866;-4.222;2023-10-19T11:36:19;18.00;99.90
44431;DHT22;30135;47.866;-4.222;2023-10-19T11:38:49;18.00;99.90
44431;DHT22;30135;47.866;-4.222;2023-10-19T11:41:17;18.00;99.90
44431;DHT22;30135;47.866;-4.222;2023-10-19T11:43:45;18.00;99.90
44431;DHT22;30135;47.866;-4.222;2023-10-19T11:46:12;18.00;99.90
44431;DHT22;30135;47.866;-4.222;2023-10-19T11:48:40;18.00;99.90
44431;DHT22;30135;47.866;-4.222;2023-10-19T11:51:08;18.00;99.90
44431;DHT22;30135;47.866;-4.222;2023-10-19T11:53:37;18.00;99.90
44431;DHT22;30135;47.866;-4.222;2023-10-19T11:56:05;18.00;99.90
44431;DHT22;30135;47.866;-4.222;2023-10-19T11:58:33;18.00;99.90
44431;DHT22;30135;47.866;-4.222;2023-10-19T12:01:08;18.00;99.90
44431;DHT22;30135;47.866;-4.222;2023-10-19T12:03:38;18.00;99.90
44431;DHT22;30135;47.866;-4.222;2023-10-19T12:06:07;17.90;99.90
44431;DHT22;30135;47.866;-4.222;2023-10-19T12:08:34;17.90;99.90
44431;DHT22;30135;47.866;-4.222;2023-10-19T12:11:02;17.80;99.90
44431;DHT22;30135;47.866;-4.222;2023-10-19T12:13:30;17.80;99.90
44431;DHT22;30135;47.866;-4.222;2023-10-19T12:15:57;17.80;99.90
44431;DHT22;30135;47.866;-4.222;2023-10-19T12:18:26;17.80;99.90
44431;DHT22;30135;47.866;-4.222;2023-10-19T12:20:54;17.80;99.90
44431;DHT22;30135;47.866;-4.222;2023-10-19T12:23:25;17.70;99.90
44431;DHT22;30135;47.866;-4.222;2023-10-19T12:25:52;17.80;99.90
44431;DHT22;30135;47.866;-4.222;2023-10-19T12:28:18;17.70;99.90
44431;DHT22;30135;47.866;-4.222;2023-10-19T12:30:45;17.80;99.90
44431;DHT22;30135;47.866;-4.222;2023-10-19T12:33:12;17.80;99.90
44431;DHT22;30135;47.866;-4.222;2023-10-19T12:35:40;17.80;99.90
44431;DHT22;30135;47.866;-4.222;2023-10-19T12:38:25;17.80;99.90
44431;DHT22;30135;47.866;-4.222;2023-10-19T12:40:51;17.80;99.90
44431;DHT22;30135;47.866;-4.222;2023-10-19T12:43:18;17.90;99.90
44431;DHT22;30135;47.866;-4.222;2023-10-19T12:45:45;17.90;99.90
44431;DHT22;30135;47.866;-4.222;2023-10-19T12:48:16;17.90;99.90
44431;DHT22;30135;47.866;-4.222;2023-10-19T12:50:43;17.90;99.90
44431;DHT22;30135;47.866;-4.222;2023-10-19T12:53:09;17.90;99.90
44431;DHT22;30135;47.866;-4.222;2023-10-19T12:55:36;18.00;99.90
44431;DHT22;30135;47.866;-4.222;2023-10-19T12:58:05;18.00;99.90
44431;DHT22;30135;47.866;-4.222;2023-10-19T13:00:38;18.00;99.90
44431;DHT22;30135;47.866;-4.222;2023-10-19T13:03:09;18.00;99.90
44431;DHT22;30135;47.866;-4.222;2023-10-19T13:05:40;18.00;99.90
44431;DHT22;30135;47.866;-4.222;2023-10-19T13:08:07;18.00;99.90
44431;DHT22;30135;47.866;-4.222;2023-10-19T13:10:35;18.00;99.90
44431;DHT22;30135;47.866;-4.222;2023-10-19T13:13:05;18.00;99.90
44431;DHT22;30135;47.866;-4.222;2023-10-19T13:15:36;18.10;99.90
44431;DHT22;30135;47.866;-4.222;2023-10-19T13:18:02;18.10;99.90
44431;DHT22;30135;47.866;-4.222;2023-10-19T13:20:29;18.10;99.90
44431;DHT22;30135;47.866;-4.222;2023-10-19T13:23:06;18.10;99.90
44431;DHT22;30135;47.866;-4.222;2023-10-19T13:25:37;18.10;99.90
44431;DHT22;30135;47.866;-4.222;2023-10-19T13:28:17;18.10;99.90
44431;DHT22;30135;47.866;-4.222;2023-10-19T13:30:48;18.20;99.90
44431;DHT22;30135;47.866;-4.222;2023-10-19T13:33:16;18.20;99.90
44431;DHT22;30135;47.866;-4.222;2023-10-19T13:35:45;18.20;99.90
44431;DHT22;30135;47.866;-4.222;2023-10-19T13:38:12;18.20;99.90
44431;DHT22;30135;47.866;-4.222;2023-10-19T13:40:40;18.20;99.90
44431;DHT22;30135;47.866;-4.222;2023-10-19T13:43:07;18.20;99.90
44431;DHT22;30135;47.866;-4.222;2023-10-19T13:45:36;18.30;99.90
44431;DHT22;30135;47.866;-4.222;2023-10-19T13:48:04;18.30;99.90
44431;DHT22;30135;47.866;-4.222;2023-10-19T13:50:31;18.20;99.90
44431;DHT22;30135;47.866;-4.222;2023-10-19T13:52:58;18.20;99.90
44431;DHT22;30135;47.866;-4.222;2023-10-19T13:55:30;18.30;99.90
44431;DHT22;30135;47.866;-4.222;2023-10-19T13:57:57;18.30;99.90
44431;DHT22;30135;47.866;-4.222;2023-10-19T14:00:24;18.30;99.90
44431;DHT22;30135;47.866;-4.222;2023-10-19T14:02:56;18.30;99.90
44431;DHT22;30135;47.866;-4.222;2023-10-19T14:05:27;18.20;99.90
44431;DHT22;30135;47.866;-4.222;2023-10-19T14:07:56;18.30;99.90
44431;DHT22;30135;47.866;-4.222;2023-10-19T14:10:22;18.20;99.90
44431;DHT22;30135;47.866;-4.222;2023-10-19T14:12:50;18.20;99.90
44431;DHT22;30135;47.866;-4.222;2023-10-19T14:15:18;18.20;99.90
44431;DHT22;30135;47.866;-4.222;2023-10-19T14:17:47;18.20;99.90
44431;DHT22;30135;47.866;-4.222;2023-10-19T14:20:16;18.20;99.90
44431;DHT22;30135;47.866;-4.222;2023-10-19T14:22:44;18.20;99.90
44431;DHT22;30135;47.866;-4.222;2023-10-19T14:25:13;18.20;99.90
44431;DHT22;30135;47.866;-4.222;2023-10-19T14:27:43;18.30;99.90
44431;DHT22;30135;47.866;-4.222;2023-10-19T14:30:11;18.30;99.90
44431;DHT22;30135;47.866;-4.222;2023-10-19T14:32:45;18.20;99.90
44431;DHT22;30135;47.866;-4.222;2023-10-19T14:35:16;18.30;99.90
44431;DHT22;30135;47.866;-4.222;2023-10-19T14:37:48;18.30;99.90
44431;DHT22;30135;47.866;-4.222;2023-10-19T14:40:24;18.30;99.90
44431;DHT22;30135;47.866;-4.222;2023-10-19T14:42:55;18.30;99.90
44431;DHT22;30135;47.866;-4.222;2023-10-19T14:45:26;18.30;99.90
44431;DHT22;30135;47.866;-4.222;2023-10-19T14:47:57;18.40;99.90
44431;DHT22;30135;47.866;-4.222;2023-10-19T14:50:25;18.40;99.90
44431;DHT22;30135;47.866;-4.222;2023-10-19T14:52:53;18.40;99.90
44431;DHT22;30135;47.866;-4.222;2023-10-19T14:55:22;18.40;99.90
44431;DHT22;30135;47.866;-4.222;2023-10-19T14:57:50;18.40;99.90
44431;DHT22;30135;47.866;-4.222;2023-10-19T15:00:22;18.30;99.90
44431;DHT22;30135;47.866;-4.222;2023-10-19T15:02:55;18.30;99.90
44431;DHT22;30135;47.866;-4.222;2023-10-19T15:05:26;18.30;99.90
44431;DHT22;30135;47.866;-4.222;2023-10-19T15:07:53;18.30;99.90
44431;DHT22;30135;47.866;-4.222;2023-10-19T15:10:25;18.30;99.90
44431;DHT22;30135;47.866;-4.222;2023-10-19T15:12:55;18.30;99.90
44431;DHT22;30135;47.866;-4.222;2023-10-19T15:15:25;18.30;99.90
44431;DHT22;30135;47.866;-4.222;2023-10-19T15:17:52;18.30;99.90
44431;DHT22;30135;47.866;-4.222;2023-10-19T15:20:20;18.30;99.90
44431;DHT22;30135;47.866;-4.222;2023-10-19T15:22:51;18.40;99.90
44431;DHT22;30135;47.866;-4.222;2023-10-19T15:25:17;18.40;99.90
44431;DHT22;30135;47.866;-4.222;2023-10-19T15:27:47;18.40;99.90
44431;DHT22;30135;47.866;-4.222;2023-10-19T15:30:17;18.40;99.90
44431;DHT22;30135;47.866;-4.222;2023-10-19T15:32:48;18.40;99.90
44431;DHT22;30135;47.866;-4.222;2023-10-19T15:35:15;18.40;99.90
44431;DHT22;30135;47.866;-4.222;2023-10-19T15:37:52;18.40;99.90
44431;DHT22;30135;47.866;-4.222;2023-10-19T15:40:22;18.50;99.90
44431;DHT22;30135;47.866;-4.222;2023-10-19T15:42:49;18.40;99.90
44431;DHT22;30135;47.866;-4.222;2023-10-19T15:45:16;18.50;99.90
44431;DHT22;30135;47.866;-4.222;2023-10-19T15:47:45;18.50;99.90
44431;DHT22;30135;47.866;-4.222;2023-10-19T15:50:12;18.50;99.90
44431;DHT22;30135;47.866;-4.222;2023-10-19T15:52:39;18.50;99.90
44431;DHT22;30135;47.866;-4.222;2023-10-19T15:55:09;18.50;99.90
44431;DHT22;30135;47.866;-4.222;2023-10-19T15:57:37;18.50;99.90